Time;durP1;ratioP1;P1;durP2;ratioP2;P2;SDS_P1;SDS_P2;PMS_P1;PMS_P2;Temp;Humidity;BMP_temperature;BMP_pressure;BME280_temperature;BME280_humidity;BME280_pressure;Samples;Min_cycle;Max_cycle;Signal;HPM_P1;HPM_P2
2021/06/04 00:00:48;;;;;;;14.87;12.00;;;;;;;18.81;70.44;101964.53;6500915;22;20096;-66
2021/06/04 00:03:22;;;;;;;14.97;13.40;;;;;;;18.78;70.49;101962.19;6398519;22;20072;-66
2021/06/04 00:05:55;;;;;;;13.38;11.93;;;;;;;18.75;70.19;101964.31;6398235;23;20354;-67
2021/06/04 00:08:26;;;;;;;13.27;11.88;;;;;;;18.73;69.89;101972.47;6500254;22;20020;-66
2021/06/04 00:11:02;;;;;;;13.60;12.23;;;;;;;18.71;70.33;101977.94;6397380;23;20010;-67
2021/06/04 00:13:49;;;;;;;14.15;12.07;;;;;;;18.74;69.64;101975.94;6397924;23;20017;-67
2021/06/04 00:16:30;;;;;;;14.13;12.18;;;;;;;18.65;70.17;101977.69;6398549;23;20006;-66
2021/06/04 00:19:06;;;;;;;14.88;12.52;;;;;;;18.62;70.16;101972.69;6398100;23;20002;-67
2021/06/04 00:21:43;;;;;;;14.27;12.80;;;;;;;18.52;70.55;101966.63;6397733;23;20030;-66
2021/06/04 00:24:15;;;;;;;14.50;13.07;;;;;;;18.44;70.65;101970.06;6398021;23;20502;-65
2021/06/04 00:26:48;;;;;;;15.00;13.50;;;;;;;18.43;70.92;101960.44;6398129;23;20005;-66
2021/06/04 00:29:20;;;;;;;;;;;;;;;18.76;68.38;101960.72;6397905;23;20026;-66
2021/06/04 00:31:53;;;;;;;15.43;12.88;;;;;;;18.39;71.43;101962.56;6397946;22;19991;-66
2021/06/04 00:34:25;;;;;;;16.52;13.80;;;;;;;18.38;70.83;101960.91;6397534;23;20017;-66
2021/06/04 00:36:58;;;;;;;16.45;13.88;;;;;;;18.38;71.49;101958.25;6399334;23;20019;-66
2021/06/04 00:39:31;;;;;;;15.70;13.85;;;;;;;18.34;71.76;101958.72;6399454;23;20005;-66
2021/06/04 00:42:19;;;;;;;18.90;15.05;;;;;;;18.41;70.84;101963.25;6398968;23;20012;-66
2021/06/04 00:44:53;;;;;;;16.17;14.55;;;;;;;18.31;71.46;101959.84;6399797;22;20010;-65
2021/06/04 00:47:25;;;;;;;16.23;14.10;;;;;;;18.30;70.95;101955.53;6399537;23;20032;-67
2021/06/04 00:49:57;;;;;;;16.00;14.13;;;;;;;18.28;70.93;101948.72;6399063;23;20002;-67
2021/06/04 00:52:33;;;;;;;18.47;13.97;;;;;;;18.29;71.42;101960.97;6398647;23;20076;-66
2021/06/04 00:55:14;;;;;;;16.60;14.70;;;;;;;18.26;70.88;101956.84;6399422;22;20006;-66
2021/06/04 00:57:45;;;;;;;23.15;15.70;;;;;;;18.19;71.44;101950.47;6399049;23;20396;-66
2021/06/04 01:00:25;;;;;;;16.80;15.07;;;;;;;18.20;71.64;101941.53;6397544;23;20036;-68
2021/06/04 01:02:57;;;;;;;17.88;15.82;;;;;;;18.12;71.93;101944.94;6399300;23;20002;-67
2021/06/04 01:05:31;;;;;;;16.98;15.15;;;;;;;18.10;72.04;101946.91;6399643;23;20006;-66
2021/06/04 01:08:27;;;;;;;19.85;17.35;;;;;;;18.16;71.77;101945.47;6399021;23;20080;-67
2021/06/04 01:11:42;;;;;;;18.70;15.57;;;;;;;18.22;70.83;101945.69;6399107;22;20008;-66
2021/06/04 01:14:27;;;;;;;16.90;14.50;;;;;;;18.07;71.69;101949.88;6426750;23;20024;-66
2021/06/04 01:17:04;;;;;;;16.63;14.70;;;;;;;17.99;72.28;101952.44;6399078;23;20380;-67
2021/06/04 01:19:44;;;;;;;18.33;15.15;;;;;;;17.98;72.49;101943.66;6399007;23;20028;-67
2021/06/04 01:22:39;;;;;;;19.45;15.52;;;;;;;17.97;72.38;101949.13;6501725;22;20452;-67
2021/06/04 01:25:25;;;;;;;16.80;14.88;;;;;;;17.95;72.29;101946.59;6398643;22;20009;-66
2021/06/04 01:28:00;;;;;;;21.05;15.95;;;;;;;17.82;73.00;101942.66;6399660;22;20013;-66
2021/06/04 01:30:59;;;;;;;17.85;16.05;;;;;;;17.86;72.42;101947.50;6398893;22;20123;-66
2021/06/04 01:33:38;;;;;;;18.23;16.08;;;;;;;17.75;72.84;101945.09;6398030;23;20016;-67
2021/06/04 01:36:14;;;;;;;19.98;16.95;;;;;;;17.65;73.71;101950.44;6398961;23;20009;-66
2021/06/04 01:38:48;;;;;;;18.73;16.67;;;;;;;17.64;73.47;101955.88;6399354;23;20009;-67
2021/06/04 01:41:24;;;;;;;18.27;16.35;;;;;;;17.61;73.08;101951.69;6397821;23;20009;-66
2021/06/04 01:44:03;;;;;;;19.20;15.32;;;;;;;17.58;73.75;101952.00;6398853;23;20028;-66
2021/06/04 01:46:39;;;;;;;18.65;16.75;;;;;;;17.54;73.85;101958.59;6398596;23;20005;-67
2021/06/04 01:49:18;;;;;;;19.77;17.67;;;;;;;17.47;74.62;101962.81;6397885;23;20009;-66
2021/06/04 01:52:07;;;;;;;22.48;16.90;;;;;;;17.56;74.32;101959.25;6398526;23;20020;-66
2021/06/04 01:54:47;;;;;;;19.08;17.08;;;;;;;17.51;74.34;101962.38;6399643;22;20058;-67
2021/06/04 01:57:25;;;;;;;21.30;17.65;;;;;;;17.39;75.17;101958.25;6395481;23;20044;-66
2021/06/04 01:59:59;;;;;;;19.13;17.13;;;;;;;17.37;74.32;101948.78;6397898;23;20009;-67
2021/06/04 02:02:34;;;;;;;18.67;16.77;;;;;;;17.35;74.55;101951.59;6394575;23;20014;-66
2021/06/04 02:05:09;;;;;;;20.25;17.25;;;;;;;17.32;75.16;101941.28;6397220;23;20036;-67
2021/06/04 02:07:40;;;;;;;20.73;18.17;;;;;;;17.21;75.68;101952.06;6396151;23;20471;-67
2021/06/04 02:10:18;;;;;;;21.13;17.40;;;;;;;17.34;74.92;101941.13;6397223;22;20006;-67
2021/06/04 02:12:50;;;;;;;20.80;17.98;;;;;;;17.19;75.49;101941.59;6398668;22;20017;-67
2021/06/04 02:15:27;;;;;;;21.80;18.53;;;;;;;17.26;74.98;101947.16;6399215;22;20005;-66
2021/06/04 02:18:17;;;;;;;21.55;19.25;;;;;;;17.17;75.09;101948.03;6398140;23;20010;-66
2021/06/04 02:21:09;;;;;;;21.67;19.38;;;;;;;17.20;74.52;101945.94;6398799;23;20116;-66
2021/06/04 02:23:51;;;;;;;21.55;18.73;;;;;;;17.08;75.10;101948.91;6398534;23;20009;-67
2021/06/04 02:26:37;;;;;;;23.52;19.48;;;;;;;17.07;74.42;101947.25;6398433;23;20424;-66
2021/06/04 02:29:16;;;;;;;22.90;19.55;;;;;;;17.07;75.38;101958.66;6397975;23;20006;-67
2021/06/04 02:32:07;;;;;;;21.85;19.52;;;;;;;17.07;74.66;101957.84;6398285;23;20054;-66
2021/06/04 02:35:04;;;;;;;23.65;20.52;;;;;;;17.06;74.48;101961.47;6398802;23;20041;-66
2021/06/04 02:38:00;;;;;;;24.30;19.33;;;;;;;17.02;74.77;101960.91;6398850;22;20076;-66
2021/06/04 02:40:41;;;;;;;24.50;19.85;;;;;;;16.89;75.40;101955.09;6398909;23;20340;-66
2021/06/04 02:43:24;;;;;;;23.83;20.98;;;;;;;16.86;75.73;101961.53;6399386;23;20285;-66
2021/06/04 02:45:55;;;;;;;24.00;20.50;;;;;;;16.76;76.30;101953.59;6398436;22;20009;-66
2021/06/04 02:48:27;;;;;;;22.03;19.37;;;;;;;16.73;76.14;101955.69;6398850;22;20009;-68
2021/06/04 02:51:16;;;;;;;23.85;21.27;;;;;;;16.70;75.85;101951.50;6398441;23;20252;-66
2021/06/04 02:53:58;;;;;;;23.55;20.08;;;;;;;16.73;75.57;101961.84;6398485;23;20009;-66
2021/06/04 02:56:35;;;;;;;24.33;20.60;;;;;;;16.65;76.80;101968.78;6399227;22;20013;-67
2021/06/04 02:59:17;;;;;;;24.40;20.65;;;;;;;16.54;77.25;101970.59;6397476;23;20006;-67
2021/06/04 03:01:53;;;;;;;25.35;20.77;;;;;;;16.52;77.34;101975.22;6397882;23;20453;-67
2021/06/04 03:04:28;;;;;;;26.58;21.58;;;;;;;16.45;77.57;101979.41;6397670;23;20096;-67
2021/06/04 03:07:05;;;;;;;26.33;22.10;;;;;;;16.43;77.56;101975.22;6398383;23;20006;-67
2021/06/04 03:09:40;;;;;;;24.35;21.85;;;;;;;16.37;78.01;101971.34;6398661;23;20451;-67
2021/06/04 03:12:15;;;;;;;25.15;21.95;;;;;;;16.35;77.80;101975.09;6398225;23;20017;-66
2021/06/04 03:14:48;;;;;;;25.17;21.42;;;;;;;16.29;77.69;101972.03;6398721;23;20012;-67
2021/06/04 03:17:23;;;;;;;26.15;21.35;;;;;;;16.29;78.28;101969.41;6398589;23;20017;-66
2021/06/04 03:19:54;;;;;;;24.73;21.73;;;;;;;16.25;78.09;101969.78;6397989;23;20895;-66
2021/06/04 03:22:33;;;;;;;24.17;20.92;;;;;;;16.26;78.43;101974.13;6501225;22;19997;-66
2021/06/04 03:25:12;;;;;;;23.90;21.27;;;;;;;16.24;78.27;101968.97;6398627;23;20012;-67
2021/06/04 03:27:45;;;;;;;25.88;21.45;;;;;;;16.11;79.15;101971.06;6500115;22;20059;-67
2021/06/04 03:30:19;;;;;;;25.58;22.33;;;;;;;16.13;79.05;101971.75;6397870;23;20407;-67
2021/06/04 03:32:50;;;;;;;24.27;21.02;;;;;;;16.10;79.74;101969.41;6398614;23;20013;-66
2021/06/04 03:35:23;;;;;;;25.13;21.92;;;;;;;16.15;79.15;101975.09;6398603;23;20001;-66
2021/06/04 03:37:55;;;;;;;;;;;;;;;16.44;77.04;101969.81;6398396;23;20059;-67
2021/06/04 03:40:29;;;;;;;24.45;21.80;;;;;;;16.09;80.67;101966.88;6398438;22;20303;-67
2021/06/04 03:43:04;;;;;;;25.88;22.30;;;;;;;16.09;80.56;101970.34;6500783;22;20001;-67
2021/06/04 03:45:39;;;;;;;25.35;22.17;;;;;;;16.11;80.25;101972.88;6398053;22;20032;-67
2021/06/04 03:48:16;;;;;;;26.45;23.00;;;;;;;16.11;79.86;101979.00;6398240;22;20437;-67
2021/06/04 03:50:52;;;;;;;26.38;23.40;;;;;;;16.06;80.80;101973.28;6398066;22;20055;-67
2021/06/04 03:53:25;;;;;;;24.88;22.33;;;;;;;16.02;80.62;101978.03;6397973;23;20002;-67
2021/06/04 03:55:57;;;;;;;24.08;21.48;;;;;;;16.07;79.42;101980.25;6398496;23;20009;-66
2021/06/04 03:58:28;;;;;;;26.90;22.48;;;;;;;16.05;79.64;101976.88;6397743;23;20341;-68
2021/06/04 04:01:08;;;;;;;28.60;23.73;;;;;;;15.91;81.02;101964.94;6394280;23;20013;-67
2021/06/04 04:03:41;;;;;;;25.35;22.58;;;;;;;15.91;80.77;101972.88;6397966;23;20083;-67
2021/06/04 04:06:13;;;;;;;24.52;21.85;;;;;;;15.93;80.06;101993.84;6398048;23;20329;-67
2021/06/04 04:08:44;;;;;;;27.13;23.75;;;;;;;15.88;80.67;101996.09;6396025;23;20013;-67
2021/06/04 04:11:17;;;;;;;26.92;22.90;;;;;;;15.93;80.17;102004.44;6398596;23;20009;-67
2021/06/04 04:13:50;;;;;;;29.23;23.13;;;;;;;15.85;80.68;102006.91;6398607;22;20103;-67
2021/06/04 04:16:21;;;;;;;28.25;22.63;;;;;;;15.88;80.74;102009.31;6398871;23;20053;-67
2021/06/04 04:18:52;;;;;;;27.63;23.02;;;;;;;15.92;79.98;102000.97;6399564;22;20009;-67
2021/06/04 04:21:24;;;;;;;26.67;23.05;;;;;;;15.88;81.00;102011.94;6399675;22;20001;-67
2021/06/04 04:24:00;;;;;;;25.63;22.85;;;;;;;15.97;80.96;102011.94;6399199;23;20056;-67
2021/06/04 04:26:34;;;;;;;28.48;23.35;;;;;;;15.96;79.98;102004.16;6399590;22;20395;-67
2021/06/04 04:29:06;;;;;;;29.48;22.27;;;;;;;15.93;80.82;102010.53;6501747;22;20063;-68
2021/06/04 04:31:46;;;;;;;28.20;22.40;;;;;;;15.91;80.90;102007.22;6398646;23;20476;-67
2021/06/04 04:34:19;;;;;;;29.50;23.17;;;;;;;15.95;80.91;102008.63;6399478;23;20013;-67
2021/06/04 04:36:54;;;;;;;25.38;22.58;;;;;;;16.00;80.54;102006.38;6399249;23;20006;-67
2021/06/04 04:39:36;;;;;;;25.67;22.88;;;;;;;16.08;80.78;102008.34;6399032;23;20384;-67
2021/06/04 04:42:10;;;;;;;26.88;23.75;;;;;;;16.11;81.49;102000.16;6502142;22;20013;-67
2021/06/04 04:44:42;;;;;;;29.67;23.80;;;;;;;16.20;81.03;101998.47;6398365;23;20005;-67
2021/06/04 04:47:16;;;;;;;28.75;23.45;;;;;;;16.24;80.87;101998.06;6399275;23;20115;-67
2021/06/04 04:49:48;;;;;;;27.90;23.77;;;;;;;16.26;80.52;101996.13;6399439;23;20006;-67
2021/06/04 04:52:20;;;;;;;30.88;23.80;;;;;;;16.40;79.99;101999.31;6398756;23;20013;-67
2021/06/04 04:54:55;;;;;;;26.42;23.10;;;;;;;16.49;80.10;102006.41;6398974;22;20033;-67
2021/06/04 04:57:28;;;;;;;30.10;24.55;;;;;;;16.51;80.21;101994.69;6399784;23;20002;-67
2021/06/04 04:59:59;;;;;;;27.63;23.95;;;;;;;16.57;80.20;101995.97;6398307;23;20002;-67
2021/06/04 05:02:30;;;;;;;30.48;24.95;;;;;;;16.60;80.05;101994.84;6398820;22;20310;-66
2021/06/04 05:05:03;;;;;;;31.75;24.38;;;;;;;16.62;80.28;101996.34;6399478;22;20058;-67
2021/06/04 05:07:35;;;;;;;27.77;23.40;;;;;;;16.70;79.77;101996.47;6398784;23;20041;-67
2021/06/04 05:10:07;;;;;;;31.33;24.17;;;;;;;16.77;79.51;101996.78;6398362;23;20012;-67
2021/06/04 05:12:38;;;;;;;26.00;22.85;;;;;;;16.84;79.54;101995.25;6399019;23;20005;-67
2021/06/04 05:15:14;;;;;;;32.97;25.95;;;;;;;16.86;79.09;102008.31;6399081;22;20040;-66
2021/06/04 05:17:46;;;;;;;33.65;24.55;;;;;;;16.95;79.14;102007.47;6398821;23;20002;-66
2021/06/04 05:20:19;;;;;;;30.65;23.83;;;;;;;17.05;78.90;102008.28;6398672;23;20013;-67
2021/06/04 05:22:51;;;;;;;32.58;24.58;;;;;;;17.06;78.32;102009.94;6397478;23;20005;-67
2021/06/04 05:25:31;;;;;;;36.73;24.87;;;;;;;17.14;78.09;102018.00;6398261;23;20033;-67
2021/06/04 05:28:04;;;;;;;31.58;23.88;;;;;;;17.11;77.70;102012.16;6399271;23;20240;-67
2021/06/04 05:30:39;;;;;;;30.80;24.50;;;;;;;17.13;78.42;102000.47;6398202;23;20018;-67
2021/06/04 05:33:16;;;;;;;29.27;23.42;;;;;;;17.20;77.43;102013.97;6396792;23;20425;-66
2021/06/04 05:35:47;;;;;;;32.17;23.83;;;;;;;17.28;77.63;102016.72;6397873;23;20010;-68
2021/06/04 05:38:19;;;;;;;32.20;24.10;;;;;;;17.34;76.90;102020.59;6399507;23;20010;-67
2021/06/04 05:40:51;;;;;;;31.13;24.50;;;;;;;17.37;76.19;102018.47;6398811;23;20006;-66
2021/06/04 05:43:31;;;;;;;29.00;24.50;;;;;;;17.48;76.40;102020.09;6398775;22;20002;-68
2021/06/04 05:46:04;;;;;;;29.17;23.23;;;;;;;17.45;75.62;102015.94;6399173;22;20009;-67
2021/06/04 05:48:36;;;;;;;29.17;24.05;;;;;;;17.47;76.11;102015.81;6390845;23;20303;-67
2021/06/04 05:51:15;;;;;;;30.23;23.88;;;;;;;17.56;76.48;102008.78;6394580;23;20012;-67
2021/06/04 05:53:47;;;;;;;33.53;25.50;;;;;;;17.60;76.15;102007.50;6398243;23;20005;-67
2021/06/04 05:56:21;;;;;;;29.58;25.80;;;;;;;17.72;74.87;102023.03;6394375;23;20005;-67
2021/06/04 05:58:55;;;;;;;29.13;24.35;;;;;;;17.77;75.39;102016.47;6398849;23;20001;-67
2021/06/04 06:01:32;;;;;;;33.08;26.10;;;;;;;17.87;75.17;102018.09;6398307;23;20333;-67
2021/06/04 06:04:04;;;;;;;34.90;26.58;;;;;;;17.92;75.17;102034.41;6396345;23;20320;-66
2021/06/04 06:06:35;;;;;;;33.63;27.03;;;;;;;18.01;74.85;102029.19;6387940;23;20023;-66
2021/06/04 06:09:07;;;;;;;37.70;28.67;;;;;;;18.11;75.17;102022.00;6398707;22;20229;-66
2021/06/04 06:11:39;;;;;;;36.92;28.15;;;;;;;18.08;74.62;102023.13;6396117;22;20040;-66
2021/06/04 06:14:11;;;;;;;36.22;28.60;;;;;;;18.30;74.98;102023.69;6393579;23;20013;-67
2021/06/04 06:16:44;;;;;;;34.90;28.03;;;;;;;18.47;74.18;102022.81;6398004;23;20005;-68
2021/06/04 06:19:17;;;;;;;41.17;30.05;;;;;;;18.65;73.94;102025.47;6397389;23;20468;-67
2021/06/04 06:21:50;;;;;;;45.20;29.63;;;;;;;18.86;73.58;102022.47;6396768;23;20088;-66
2021/06/04 06:24:22;;;;;;;37.35;29.15;;;;;;;18.94;72.55;102020.72;6397186;22;20081;-67
2021/06/04 06:26:53;;;;;;;38.45;30.10;;;;;;;19.10;71.83;102025.31;6398730;23;20029;-66
2021/06/04 06:29:29;;;;;;;32.80;29.20;;;;;;;19.13;72.09;102019.69;6397703;23;20018;-67
2021/06/04 06:32:00;;;;;;;37.50;28.58;;;;;;;19.34;71.03;102019.28;6398715;23;20009;-67
2021/06/04 06:34:32;;;;;;;31.33;26.23;;;;;;;19.51;70.38;102022.84;6398942;23;20119;-66
2021/06/04 06:37:04;;;;;;;36.53;27.90;;;;;;;19.48;69.85;102032.97;6397851;23;20005;-66
2021/06/04 06:39:35;;;;;;;34.20;27.60;;;;;;;19.60;71.08;102024.53;6397280;22;20010;-67
2021/06/04 06:42:09;;;;;;;32.73;26.33;;;;;;;19.66;69.96;102031.06;6395762;23;20001;-67
2021/06/04 06:44:40;;;;;;;31.20;25.92;;;;;;;19.70;70.34;102021.78;6394611;23;20017;-67
2021/06/04 06:47:12;;;;;;;31.47;25.50;;;;;;;19.85;69.12;102030.81;6397181;23;20425;-67
2021/06/04 06:49:43;;;;;;;31.03;25.43;;;;;;;19.90;68.92;102028.50;6397140;23;20497;-66
2021/06/04 06:52:14;;;;;;;31.87;25.73;;;;;;;20.22;68.04;102034.03;6394361;22;20029;-67
2021/06/04 06:54:46;;;;;;;31.97;25.03;;;;;;;20.44;68.80;102030.72;6398003;22;20054;-67
2021/06/04 06:57:17;;;;;;;26.17;21.97;;;;;;;20.57;66.93;102028.44;6397839;22;20013;-66
2021/06/04 06:59:48;;;;;;;26.57;20.93;;;;;;;20.79;65.28;102028.72;6398144;22;20009;-68
2021/06/04 07:02:20;;;;;;;26.33;19.97;;;;;;;20.79;64.16;102028.72;6396921;22;20016;-67
2021/06/04 07:04:52;;;;;;;21.38;17.58;;;;;;;20.80;63.91;102031.25;6395451;23;20363;-66
2021/06/04 07:07:23;;;;;;;25.20;17.63;;;;;;;20.81;63.29;102030.22;6395434;23;20008;-67
2021/06/04 07:09:54;;;;;;;23.70;17.73;;;;;;;20.90;65.50;102031.03;6397566;22;20100;-66
2021/06/04 07:12:26;;;;;;;22.87;19.60;;;;;;;20.96;64.08;102034.88;6398145;22;20002;-67
2021/06/04 07:14:57;;;;;;;22.43;18.33;;;;;;;21.01;65.60;102028.03;6398415;22;20036;-67
2021/06/04 07:17:30;;;;;;;20.50;17.90;;;;;;;21.11;63.48;102035.84;6396961;23;20186;-67
2021/06/04 07:20:04;;;;;;;23.58;18.10;;;;;;;21.17;63.60;102027.16;6397009;23;20040;-67
2021/06/04 07:22:35;;;;;;;23.60;19.48;;;;;;;21.27;64.40;102038.44;6396385;23;20049;-67
2021/06/04 07:25:14;;;;;;;26.43;19.97;;;;;;;21.25;63.93;102042.28;6398183;23;20013;-65
2021/06/04 07:27:47;;;;;;;22.95;20.45;;;;;;;21.33;64.13;102039.66;6397780;23;20435;-66
2021/06/04 07:30:22;;;;;;;22.60;18.98;;;;;;;21.37;64.21;102040.97;6396734;22;20052;-66
2021/06/04 07:32:56;;;;;;;20.40;17.67;;;;;;;21.44;63.68;102036.59;6396824;23;20037;-66
2021/06/04 07:35:30;;;;;;;21.17;17.38;;;;;;;21.53;63.27;102032.06;6397880;23;20016;-67
2021/06/04 07:38:03;;;;;;;21.02;16.58;;;;;;;21.61;63.43;102040.84;6396130;23;20005;-66
2021/06/04 07:40:35;;;;;;;;;;;;;;;21.92;63.45;102039.19;6398466;23;20001;-68
2021/06/04 07:43:10;;;;;;;19.92;16.92;;;;;;;21.84;62.42;102032.06;6397537;22;19912;-67
2021/06/04 07:45:44;;;;;;;20.77;16.60;;;;;;;21.97;62.51;102035.00;6397266;23;20503;-67
2021/06/04 07:48:18;;;;;;;23.15;17.67;;;;;;;22.00;63.09;102042.63;6396151;23;20440;-66
2021/06/04 07:50:53;;;;;;;22.40;17.30;;;;;;;22.09;61.94;102038.94;6397247;23;20048;-66
2021/06/04 07:53:28;;;;;;;21.85;17.50;;;;;;;22.18;61.97;102038.91;6396438;23;20013;-66
2021/06/04 07:56:00;;;;;;;22.00;18.27;;;;;;;22.09;62.09;102043.44;6395695;23;20005;-65
2021/06/04 07:58:32;;;;;;;20.55;16.90;;;;;;;22.45;61.82;102042.88;6396638;22;20308;-67
2021/06/04 08:01:05;;;;;;;22.00;17.13;;;;;;;22.63;61.21;102038.03;6396102;23;20006;-66
2021/06/04 08:03:38;;;;;;;20.48;16.38;;;;;;;22.62;61.86;102033.72;6396561;23;20005;-68
2021/06/04 08:06:11;;;;;;;20.67;17.23;;;;;;;22.84;60.15;102029.31;6396751;23;20341;-68
2021/06/04 08:08:43;;;;;;;20.95;16.77;;;;;;;22.90;59.79;102049.16;6386800;23;20081;-68
2021/06/04 08:11:22;;;;;;;18.00;16.10;;;;;;;23.00;59.63;102039.06;6395460;23;20013;-68
2021/06/04 08:13:58;;;;;;;20.15;16.55;;;;;;;22.92;60.82;102031.97;6392160;23;20065;-68
2021/06/04 08:16:29;;;;;;;19.25;16.05;;;;;;;22.94;59.74;102029.09;6389506;23;20071;-68
2021/06/04 08:19:01;;;;;;;20.43;17.33;;;;;;;23.01;60.44;102027.34;6395274;22;20013;-69
2021/06/04 08:21:37;;;;;;;20.33;17.53;;;;;;;22.98;60.40;102033.06;6388810;23;20048;-68
2021/06/04 08:24:12;;;;;;;18.58;16.42;;;;;;;23.10;59.62;102031.56;6395699;23;20081;-68
2021/06/04 08:26:43;;;;;;;21.02;17.55;;;;;;;22.92;60.98;102029.28;6396789;23;20037;-68
2021/06/04 08:29:15;;;;;;;20.60;18.13;;;;;;;22.92;59.66;102026.63;6395474;23;20060;-68
2021/06/04 08:31:46;;;;;;;20.43;17.87;;;;;;;22.77;59.42;102028.41;6392411;23;20078;-68
2021/06/04 08:34:17;;;;;;;25.43;19.03;;;;;;;22.66;58.71;102026.16;6389718;23;20001;-68
2021/06/04 08:36:49;;;;;;;20.53;18.37;;;;;;;22.83;59.27;102027.66;6390923;23;20078;-68
2021/06/04 08:39:28;;;;;;;21.80;19.33;;;;;;;22.94;59.45;102031.75;6396074;22;20010;-68
2021/06/04 08:42:07;;;;;;;23.35;19.27;;;;;;;23.16;59.42;102035.38;6395569;23;20002;-68
2021/06/04 08:44:57;;;;;;;22.23;19.67;;;;;;;23.39;59.61;102033.44;6393646;23;20008;-68
2021/06/04 08:47:31;;;;;;;21.52;19.23;;;;;;;23.72;58.76;102027.69;6395732;22;20001;-68
2021/06/04 08:50:05;;;;;;;22.20;19.88;;;;;;;23.81;58.09;102034.59;6395863;23;20178;-68
2021/06/04 08:52:42;;;;;;;24.50;21.02;;;;;;;23.90;55.87;102035.28;6392628;22;20123;-69
2021/06/04 08:55:29;;;;;;;27.08;21.85;;;;;;;24.06;56.44;102035.06;6397067;22;20001;-68
2021/06/04 08:58:25;;;;;;;24.17;21.55;;;;;;;24.20;57.70;102036.00;6398302;23;20017;-68
2021/06/04 09:01:25;;;;;;;25.80;21.90;;;;;;;24.57;55.83;102037.63;6395788;22;20029;-69
2021/06/04 09:04:13;;;;;;;28.50;23.77;;;;;;;24.62;57.35;102040.53;6419517;23;20031;-69
2021/06/04 09:06:54;;;;;;;26.35;23.27;;;;;;;24.65;55.52;102039.31;6393413;23;20005;-68
2021/06/04 09:09:44;;;;;;;24.05;20.48;;;;;;;24.86;54.18;102038.47;6395486;22;20514;-68
2021/06/04 09:12:39;;;;;;;25.73;20.40;;;;;;;24.88;54.17;102036.41;6396654;23;20013;-68
2021/06/04 09:15:13;;;;;;;18.33;14.77;;;;;;;25.16;50.80;102033.72;6396174;23;20071;-68
2021/06/04 09:17:47;;;;;;;20.52;16.27;;;;;;;25.21;50.17;102032.09;6396290;23;20460;-68
2021/06/04 09:20:34;;;;;;;21.60;18.10;;;;;;;25.50;51.07;102035.56;6397311;22;20010;-68
2021/06/04 09:23:09;;;;;;;23.67;19.58;;;;;;;25.46;49.56;102043.16;6395282;23;20217;-69
2021/06/04 09:25:42;;;;;;;25.83;19.27;;;;;;;25.54;51.19;102036.81;6396457;23;20062;-68
2021/06/04 09:28:20;;;;;;;23.10;20.65;;;;;;;25.68;51.40;102040.34;6392596;22;20288;-68
2021/06/04 09:31:19;;;;;;;25.75;21.83;;;;;;;25.77;51.79;102035.66;6393729;23;20118;-68
2021/06/04 09:34:09;;;;;;;26.52;22.80;;;;;;;25.73;50.95;102033.34;6397328;23;20345;-68
2021/06/04 09:36:58;;;;;;;25.65;22.08;;;;;;;25.72;51.29;102031.72;6396400;22;20016;-68
2021/06/04 09:39:49;;;;;;;24.52;20.70;;;;;;;25.95;50.23;102033.25;6398037;23;20059;-69
2021/06/04 09:42:26;;;;;;;23.73;21.23;;;;;;;26.05;49.78;102030.16;6397851;23;20333;-69
2021/06/04 09:44:59;;;;;;;24.77;21.05;;;;;;;26.14;49.61;102031.63;6396815;23;20010;-68
2021/06/04 09:47:36;;;;;;;21.90;19.52;;;;;;;26.28;49.70;102019.03;6397691;23;20012;-69
2021/06/04 09:50:31;;;;;;;24.67;21.42;;;;;;;26.48;50.16;102032.50;6500365;22;20005;-68
2021/06/04 09:53:13;;;;;;;23.17;20.63;;;;;;;26.36;50.10;102024.19;6396255;23;20311;-68
2021/06/04 09:56:11;;;;;;;26.10;22.60;;;;;;;26.33;51.06;102020.06;6396711;23;20029;-68
2021/06/04 09:58:54;;;;;;;25.05;22.17;;;;;;;26.60;50.86;102018.22;6397518;23;20097;-69
2021/06/04 10:01:48;;;;;;;27.42;24.63;;;;;;;26.48;50.89;102011.00;6395284;22;20016;-68
2021/06/04 10:04:29;;;;;;;24.85;21.95;;;;;;;26.62;49.09;102009.94;6393761;23;20007;-68
2021/06/04 10:07:14;;;;;;;24.77;22.08;;;;;;;26.80;50.31;102004.75;6392490;23;20005;-68
2021/06/04 10:09:46;;;;;;;29.83;23.05;;;;;;;27.00;50.46;102011.94;6394730;23;20013;-69
2021/06/04 10:12:41;;;;;;;27.48;24.60;;;;;;;27.23;48.82;102015.00;6392293;23;20456;-69
2021/06/04 10:15:13;;;;;;;26.02;23.23;;;;;;;27.15;48.92;102012.56;6395038;23;20005;-69
2021/06/04 10:17:58;;;;;;;27.07;24.10;;;;;;;27.27;48.22;102008.16;6395693;22;20005;-69
2021/06/04 10:20:35;;;;;;;25.55;22.92;;;;;;;27.21;47.71;102000.97;6395259;22;20006;-69
2021/06/04 10:23:11;;;;;;;24.02;21.42;;;;;;;27.35;48.55;102007.94;6394619;23;20029;-69
2021/06/04 10:25:56;;;;;;;26.58;23.80;;;;;;;27.42;47.71;102000.66;6498888;22;20058;-69
2021/06/04 10:28:39;;;;;;;25.20;20.67;;;;;;;27.54;49.63;102002.66;6396412;23;20394;-68
2021/06/04 10:31:13;;;;;;;24.63;21.90;;;;;;;27.46;47.27;101992.16;6396933;23;20028;-68
2021/06/04 10:34:05;;;;;;;24.17;21.55;;;;;;;27.40;47.14;102000.06;6397221;22;20055;-67
2021/06/04 10:36:39;;;;;;;;;;;;;;;27.86;46.84;101987.41;6396336;23;20024;-68
2021/06/04 10:39:35;;;;;;;23.13;20.45;;;;;;;27.67;47.60;101978.38;6397067;22;19913;-68
2021/06/04 10:42:29;;;;;;;24.02;20.45;;;;;;;27.73;48.79;101976.66;6397130;23;20397;-68
2021/06/04 10:45:23;;;;;;;25.55;21.70;;;;;;;27.78;47.78;101977.72;6395729;23;20135;-68
2021/06/04 10:47:54;;;;;;;25.10;21.15;;;;;;;27.49;48.10;101970.19;6397625;23;20077;-70
2021/06/04 10:50:31;;;;;;;22.90;18.63;;;;;;;27.68;47.81;101961.16;6397346;22;20029;-69
2021/06/04 10:53:21;;;;;;;20.05;17.90;;;;;;;27.86;47.05;101963.16;6395713;23;20002;-69
2021/06/04 10:56:07;;;;;;;22.75;20.05;;;;;;;28.01;46.29;101973.63;6396198;23;20033;-69
2021/06/04 10:59:08;;;;;;;20.52;17.13;;;;;;;28.19;46.76;101965.63;6396690;23;20380;-69
2021/06/04 11:01:45;;;;;;;22.73;18.05;;;;;;;27.94;46.17;101968.28;6395699;23;20001;-69
2021/06/04 11:04:25;;;;;;;24.58;19.25;;;;;;;27.81;47.45;101969.22;6395999;23;20010;-69
2021/06/04 11:07:05;;;;;;;18.73;16.83;;;;;;;28.07;47.12;101962.81;6393843;23;20009;-69
2021/06/04 11:09:55;;;;;;;22.40;19.67;;;;;;;28.21;45.93;101962.69;6499839;22;20037;-69
2021/06/04 11:12:42;;;;;;;22.95;19.80;;;;;;;28.24;45.20;101956.84;6397990;23;20010;-69
2021/06/04 11:15:49;;;;;;;19.83;16.63;;;;;;;28.55;45.66;101959.50;6398694;22;20473;-69
2021/06/04 11:18:24;;;;;;;21.08;17.02;;;;;;;28.54;44.33;101946.25;6401057;22;20040;-69
2021/06/04 11:20:57;;;;;;;19.50;16.85;;;;;;;28.39;45.60;101940.38;6397219;22;20009;-69
2021/06/04 11:23:52;;;;;;;17.27;15.52;;;;;;;28.72;44.46;101945.44;6398114;23;20001;-69
2021/06/04 11:26:31;;;;;;;17.27;15.25;;;;;;;28.54;45.00;101940.84;6397566;23;20024;-69
2021/06/04 11:29:08;;;;;;;18.00;15.23;;;;;;;28.65;43.76;101939.28;6398267;23;20005;-70
2021/06/04 11:31:48;;;;;;;19.70;14.60;;;;;;;28.78;44.08;101939.13;6397495;23;20016;-69
2021/06/04 11:34:31;;;;;;;15.52;13.52;;;;;;;28.75;43.72;101943.13;6397134;23;20051;-69
2021/06/04 11:37:06;;;;;;;16.63;13.15;;;;;;;28.90;42.45;101940.00;6397135;23;20012;-69
2021/06/04 11:39:42;;;;;;;14.98;13.02;;;;;;;28.98;42.52;101936.22;6397214;22;20079;-69
2021/06/04 11:42:19;;;;;;;14.98;12.55;;;;;;;28.90;43.56;101929.22;6397636;22;20404;-69
2021/06/04 11:44:54;;;;;;;16.55;12.30;;;;;;;28.94;41.50;101935.00;6395544;22;20504;-69
2021/06/04 11:47:30;;;;;;;13.73;12.32;;;;;;;28.77;43.69;101924.00;6398077;23;20005;-69
2021/06/04 11:50:06;;;;;;;17.25;14.38;;;;;;;28.65;43.97;101923.13;6395036;23;20437;-69
2021/06/04 11:52:48;;;;;;;17.73;14.98;;;;;;;28.74;42.35;101919.06;6397702;23;20060;-69
2021/06/04 11:55:35;;;;;;;14.75;12.43;;;;;;;29.03;41.32;101912.94;6396781;23;20033;-69